Time;durP1;ratioP1;P1;durP2;ratioP2;P2;SDS_P1;SDS_P2;PMS_P1;PMS_P2;Temp;Humidity;BMP_temperature;BMP_pressure;BME280_temperature;BME280_humidity;BME280_pressure;Samples;Min_cycle;Max_cycle;Signal;HPM_P1;HPM_P2
2021/06/20 00:02:13;;;;;;;3.77;1.57;;;;;;;21.85;57.00;100861.55;1825744;77;20855;-71
2021/06/20 00:04:40;;;;;;;8.63;1.67;;;;;;;21.82;57.04;100860.05;1825397;77;21062;-70
2021/06/20 00:07:07;;;;;;;7.87;1.20;;;;;;;21.80;56.95;100855.86;1825248;77;20942;-71
2021/06/20 00:09:34;;;;;;;7.37;1.30;;;;;;;21.77;57.38;100862.36;1825377;77;20902;-71
2021/06/20 00:12:01;;;;;;;6.83;1.50;;;;;;;21.76;57.39;100862.52;1825243;77;20930;-71
2021/06/20 00:14:28;;;;;;;3.42;1.72;;;;;;;21.70;57.26;100847.48;1825755;78;20997;-71
2021/06/20 00:16:55;;;;;;;3.50;1.22;;;;;;;21.68;57.35;100850.80;1825655;77;21092;-71
2021/06/20 00:19:22;;;;;;;9.18;2.95;;;;;;;21.65;57.57;100855.61;1825367;77;20957;-71
2021/06/20 00:21:49;;;;;;;6.95;2.33;;;;;;;21.61;57.36;100858.25;1825611;77;21527;-72
2021/06/20 00:24:16;;;;;;;9.28;2.22;;;;;;;21.57;57.70;100859.08;1825710;77;20879;-72
2021/06/20 00:26:44;;;;;;;6.55;2.72;;;;;;;21.53;57.61;100855.88;1825480;77;21301;-72
2021/06/20 00:29:11;;;;;;;5.78;3.30;;;;;;;21.50;57.42;100854.05;1832994;77;21962;-73
2021/06/20 00:31:38;;;;;;;4.00;2.80;;;;;;;21.47;57.59;100850.34;1852749;77;21367;-72
2021/06/20 00:34:05;;;;;;;3.47;1.95;;;;;;;21.44;57.66;100853.33;1852718;77;20838;-71
2021/06/20 00:36:32;;;;;;;7.10;2.40;;;;;;;21.43;57.63;100843.16;1852847;77;20893;-70
2021/06/20 00:38:59;;;;;;;12.75;2.25;;;;;;;21.40;57.55;100843.42;1853012;77;21368;-71
2021/06/20 00:44:20;;;;;;;3.75;1.65;;;;;;;21.39;57.45;100836.43;1798534;78;23194;-71
2021/06/20 00:46:49;;;;;;;4.17;1.85;;;;;;;21.33;57.39;100841.05;1758380;80;20857;-72
2021/06/20 00:49:17;;;;;;;9.45;1.98;;;;;;;21.32;57.52;100836.22;1758270;80;21950;-71
2021/06/20 00:51:44;;;;;;;12.53;2.40;;;;;;;21.29;57.63;100838.36;1758223;81;20975;-70
2021/06/20 00:54:11;;;;;;;13.10;2.85;;;;;;;21.27;57.85;100841.67;1758208;81;20888;-71
2021/06/20 00:56:39;;;;;;;4.42;1.90;;;;;;;21.25;57.92;100836.98;1758239;81;21406;-71
2021/06/20 00:59:07;;;;;;;6.62;2.55;;;;;;;21.21;57.79;100835.62;1758285;81;20892;-71
2021/06/20 01:01:34;;;;;;;8.23;2.25;;;;;;;21.18;57.83;100833.28;1764298;81;21074;-72
2021/06/20 01:04:02;;;;;;;8.13;2.65;;;;;;;21.15;57.66;100833.60;1758188;81;20967;-72
2021/06/20 01:06:30;;;;;;;12.18;2.65;;;;;;;21.11;58.31;100828.56;1758457;80;21343;-71
2021/06/20 01:08:57;;;;;;;14.18;3.47;;;;;;;21.07;58.12;100840.52;1758161;81;20884;-71
2021/06/20 01:11:25;;;;;;;12.95;3.35;;;;;;;21.05;57.81;100839.02;1758270;81;20995;-71
2021/06/20 01:13:52;;;;;;;11.70;2.98;;;;;;;21.02;57.81;100835.33;1758338;81;21158;-71
2021/06/20 01:16:18;;;;;;;7.90;3.70;;;;;;;21.00;57.94;100843.98;1758513;81;21318;-72
2021/06/20 01:18:45;;;;;;;4.62;3.72;;;;;;;20.97;58.18;100837.64;1758220;81;20944;-72
2021/06/20 01:21:12;;;;;;;8.85;4.08;;;;;;;20.95;58.02;100828.95;1758498;81;21457;-72
2021/06/20 01:23:39;;;;;;;8.38;3.37;;;;;;;20.92;57.75;100818.10;1758418;80;20888;-72
2021/06/20 01:26:06;;;;;;;8.05;3.85;;;;;;;20.90;58.04;100824.08;1758496;81;21094;-72
2021/06/20 01:28:48;;;;;;;9.40;4.22;;;;;;;20.88;58.00;100822.89;1758290;81;21429;-72
2021/06/20 01:31:06;;;;;;;7.42;2.85;;;;;;;20.85;58.33;100821.02;1757077;81;21074;-71
2021/06/20 01:33:30;;;;;;;3.95;2.37;;;;;;;20.83;58.25;100819.00;1763982;81;21354;-72
2021/06/20 01:35:57;;;;;;;5.78;2.65;;;;;;;20.80;58.47;100821.98;1758529;81;20880;-71
2021/06/20 01:38:24;;;;;;;9.83;1.70;;;;;;;20.77;58.26;100825.80;1758301;81;21131;-71
2021/06/20 01:40:51;;;;;;;6.45;2.12;;;;;;;20.74;57.62;100830.09;1758688;81;20881;-72
2021/06/20 01:43:17;;;;;;;4.25;1.15;;;;;;;20.71;57.97;100830.41;1751420;81;20920;-71
2021/06/20 01:45:45;;;;;;;4.75;1.60;;;;;;;20.68;57.79;100821.39;1745129;80;20965;-71
2021/06/20 01:48:11;;;;;;;9.65;2.22;;;;;;;20.65;57.68;100825.68;1745242;82;21449;-71
2021/06/20 01:50:39;;;;;;;16.57;2.05;;;;;;;20.62;57.76;100828.66;1745075;82;21138;-72
2021/06/20 01:53:11;;;;;;;5.35;1.98;;;;;;;20.59;57.42;100830.31;1745135;82;20991;-71
2021/06/20 01:55:42;;;;;;;5.00;1.75;;;;;;;20.59;57.52;100824.98;1744735;82;20853;-71
2021/06/20 01:58:12;;;;;;;6.22;1.75;;;;;;;20.57;58.03;100821.62;1744647;82;20928;-71
2021/06/20 02:00:41;;;;;;;4.10;1.60;;;;;;;20.53;58.08;100817.55;1708824;83;20849;-70
2021/06/20 02:03:13;;;;;;;8.65;2.15;;;;;;;20.51;58.21;100813.70;1708816;82;21157;-70
2021/06/20 02:05:42;;;;;;;7.65;2.10;;;;;;;20.48;58.24;100813.52;1708894;84;20901;-71
2021/06/20 02:08:11;;;;;;;9.33;2.75;;;;;;;20.46;58.40;100813.33;1708921;84;20924;-71
2021/06/20 02:10:40;;;;;;;3.52;2.52;;;;;;;20.43;58.14;100817.14;1708898;84;20896;-70
2021/06/20 02:13:07;;;;;;;6.72;2.37;;;;;;;20.42;58.07;100813.28;1708832;84;20920;-70
2021/06/20 02:15:34;;;;;;;9.93;2.87;;;;;;;20.39;58.37;100810.43;1708819;84;21120;-69
2021/06/20 02:18:03;;;;;;;8.35;3.00;;;;;;;20.37;58.16;100803.08;1708765;84;21421;-70
2021/06/20 02:20:31;;;;;;;5.37;2.35;;;;;;;20.35;58.24;100801.56;1708924;84;20900;-70
2021/06/20 02:22:57;;;;;;;7.37;1.80;;;;;;;20.35;58.31;100802.89;1708987;83;20928;-71
2021/06/20 02:25:24;;;;;;;9.38;1.60;;;;;;;20.34;57.95;100809.20;1708847;84;20932;-71
2021/06/20 02:27:53;;;;;;;8.98;1.92;;;;;;;20.35;57.73;100822.88;1709019;82;21121;-71
2021/06/20 02:30:21;;;;;;;3.00;1.60;;;;;;;20.34;57.30;100823.34;1708774;84;20927;-70
2021/06/20 02:32:49;;;;;;;9.75;2.17;;;;;;;20.36;57.72;100817.38;1708778;82;21342;-70
2021/06/20 02:35:17;;;;;;;6.85;1.62;;;;;;;20.35;57.34;100809.05;1708748;83;20856;-70
2021/06/20 02:37:45;;;;;;;4.60;1.47;;;;;;;20.37;57.17;100820.40;1708917;84;21469;-70
2021/06/20 02:40:16;;;;;;;7.78;1.80;;;;;;;20.38;57.35;100820.73;1708774;84;21088;-70
2021/06/20 02:42:44;;;;;;;4.42;2.05;;;;;;;20.41;57.54;100816.92;1708726;82;20913;-70
2021/06/20 02:45:14;;;;;;;5.60;1.98;;;;;;;20.41;57.38;100814.25;1708820;84;21545;-71
2021/06/20 02:47:41;;;;;;;4.25;1.92;;;;;;;20.41;57.47;100808.92;1708795;82;21414;-70
2021/06/20 02:50:10;;;;;;;4.67;1.62;;;;;;;20.41;57.22;100811.13;1708865;84;20924;-70
2021/06/20 02:52:37;;;;;;;3.98;1.80;;;;;;;20.43;57.29;100813.61;1708852;82;21099;-70
2021/06/20 02:55:06;;;;;;;4.47;1.70;;;;;;;20.42;57.38;100806.13;1709059;82;21398;-69
2021/06/20 02:57:32;;;;;;;6.20;2.30;;;;;;;20.44;57.81;100807.31;1710073;84;21451;-72
2021/06/20 03:00:02;;;;;;;7.70;2.22;;;;;;;20.45;57.98;100811.64;1710594;84;21619;-72
2021/06/20 03:02:29;;;;;;;5.25;1.50;;;;;;;20.41;57.20;100807.59;1711583;84;20906;-71
2021/06/20 03:04:56;;;;;;;2.85;1.65;;;;;;;20.46;56.94;100813.33;1711416;84;21128;-70
2021/06/20 03:07:24;;;;;;;3.80;2.05;;;;;;;20.46;56.67;100810.66;1710666;82;20888;-71
2021/06/20 03:09:51;;;;;;;5.03;1.90;;;;;;;20.48;57.17;100819.34;1709022;82;20914;-71
2021/06/20 03:12:17;;;;;;;6.00;1.92;;;;;;;20.46;56.53;100814.16;1709191;82;20896;-71
2021/06/20 03:14:45;;;;;;;4.20;1.90;;;;;;;20.47;56.62;100817.66;1708748;84;20940;-70
2021/06/20 03:17:14;;;;;;;4.17;1.77;;;;;;;20.47;56.53;100810.49;1708729;82;21154;-71
2021/06/20 03:19:41;;;;;;;4.83;2.62;;;;;;;20.48;57.39;100825.50;1709060;83;21359;-71
2021/06/20 03:22:09;;;;;;;4.90;2.35;;;;;;;20.48;56.21;100811.35;1655109;83;20921;-72
2021/06/20 03:24:40;;;;;;;4.28;2.12;;;;;;;20.50;56.46;100808.05;1702375;83;21338;-72
2021/06/20 03:27:08;;;;;;;7.60;2.83;;;;;;;20.53;57.12;100806.89;1702639;83;20940;-73
2021/06/20 03:29:36;;;;;;;7.22;2.20;;;;;;;20.56;56.43;100814.07;1702120;84;21637;-73
2021/06/20 03:32:05;;;;;;;7.80;3.17;;;;;;;20.61;56.37;100812.31;1702164;83;20905;-73
2021/06/20 03:34:32;;;;;;;10.03;2.37;;;;;;;;;;1702633;83;20999;-72
2021/06/20 03:37:02;;;;;;;12.98;2.08;;;;;;;20.75;56.25;100815.78;1647102;86;20999;-73
2021/06/20 03:39:29;;;;;;;4.42;1.80;;;;;;;20.82;55.67;100815.51;1646722;86;21389;-73
2021/06/20 03:41:56;;;;;;;7.40;2.27;;;;;;;20.87;55.96;100807.88;1646579;86;21573;-71
2021/06/20 03:44:24;;;;;;;6.28;1.82;;;;;;;20.93;56.38;100796.27;1645242;86;21043;-72
2021/06/20 03:46:51;;;;;;;6.45;1.35;;;;;;;20.99;55.54;100798.33;1674313;83;21343;-72
2021/06/20 03:49:18;;;;;;;8.85;1.22;;;;;;;21.03;55.84;100793.86;1700079;83;20885;-71
2021/06/20 03:51:45;;;;;;;8.48;1.35;;;;;;;21.09;55.13;100797.71;1700525;84;20936;-72
2021/06/20 03:54:12;;;;;;;5.17;1.70;;;;;;;21.11;54.69;100800.56;1700342;84;21109;-71
2021/06/20 03:56:39;;;;;;;2.02;1.35;;;;;;;21.15;53.72;100793.59;1700089;84;20929;-70
2021/06/20 03:59:09;;;;;;;6.28;1.90;;;;;;;21.14;54.85;100798.06;1700082;84;20901;-72
2021/06/20 04:01:36;;;;;;;5.65;2.35;;;;;;;21.17;54.64;100808.95;1725800;80;21383;-72
2021/06/20 04:04:05;;;;;;;6.97;2.00;;;;;;;21.15;53.62;100806.94;1752666;82;20979;-72
2021/06/20 04:06:32;;;;;;;5.47;2.22;;;;;;;21.15;54.03;100797.59;1752457;80;21162;-71
2021/06/20 04:09:00;;;;;;;8.40;2.15;;;;;;;21.13;54.23;100791.08;1752396;82;20905;-72
2021/06/20 04:11:27;;;;;;;10.82;1.90;;;;;;;21.12;53.58;100797.39;1752098;82;20912;-73
2021/06/20 04:13:54;;;;;;;8.25;2.40;;;;;;;21.08;54.16;100794.21;1752459;80;20873;-73
2021/06/20 04:16:22;;;;;;;11.40;4.35;;;;;;;21.07;54.28;100792.52;1752543;82;21023;-71
2021/06/20 04:18:48;;;;;;;11.40;4.92;;;;;;;21.05;53.79;100792.34;1716314;83;21107;-73
2021/06/20 04:21:15;;;;;;;11.53;5.60;;;;;;;21.04;53.99;100788.84;1716606;82;20892;-73
2021/06/20 04:23:44;;;;;;;7.53;4.28;;;;;;;21.06;54.64;100792.70;1716342;83;21425;-72
2021/06/20 04:26:12;;;;;;;11.20;3.83;;;;;;;21.09;55.73;100794.54;1716547;83;21011;-71
2021/06/20 04:28:40;;;;;;;8.40;3.22;;;;;;;21.11;54.56;100789.06;1716496;83;20926;-72
2021/06/20 04:31:08;;;;;;;6.42;2.37;;;;;;;21.16;55.24;100803.25;1716593;82;21820;-72
2021/06/20 04:33:35;;;;;;;5.78;2.25;;;;;;;21.33;53.67;100795.20;1716250;83;20970;-72
2021/06/20 04:36:02;;;;;;;6.15;2.42;;;;;;;21.69;53.14;100801.74;1716661;82;20971;-73
2021/06/20 04:38:29;;;;;;;10.03;2.00;;;;;;;22.16;52.18;100795.06;1716297;83;20904;-72
2021/06/20 04:41:02;;;;;;;5.08;1.92;;;;;;;22.58;51.74;100790.66;1716622;83;21452;-72
2021/06/20 04:44:42;;;;;;;8.93;1.98;;;;;;;22.88;50.42;100794.51;1714845;83;21288;-73
2021/06/20 04:45:53;;;;;;;7.62;2.42;;;;;;;23.13;49.08;100789.48;1701048;84;20940;-73
2021/06/20 04:48:21;;;;;;;5.90;3.20;;;;;;;23.27;49.08;100783.92;1708782;84;21010;-73
2021/06/20 04:50:47;;;;;;;13.13;5.30;;;;;;;23.61;47.14;100800.23;1708814;84;21390;-72
2021/06/20 04:53:15;;;;;;;9.38;6.08;;;;;;;23.89;46.86;100798.47;1708787;82;20984;-72
2021/06/20 04:55:42;;;;;;;11.03;6.10;;;;;;;24.23;46.07;100803.45;1708723;84;21141;-72
2021/06/20 04:58:09;;;;;;;13.95;5.33;;;;;;;24.66;46.38;100801.70;1708808;82;20876;-73
2021/06/20 05:00:36;;;;;;;9.95;3.98;;;;;;;25.11;44.28;100801.30;1708722;84;21429;-73
2021/06/20 05:03:03;;;;;;;11.45;4.40;;;;;;;25.27;43.21;100794.44;1708793;82;21446;-73
2021/06/20 05:05:30;;;;;;;14.55;3.98;;;;;;;25.40;43.60;100793.80;1708772;84;20924;-73
2021/06/20 05:07:58;;;;;;;9.70;4.05;;;;;;;25.56;43.88;100792.27;1708633;82;21162;-73
2021/06/20 05:10:25;;;;;;;10.32;4.25;;;;;;;25.87;44.86;100789.04;1708693;84;20916;-73
2021/06/20 05:12:55;;;;;;;11.15;3.70;;;;;;;26.24;44.73;100802.31;1708983;84;21472;-73
2021/06/20 05:15:20;;;;;;;7.83;2.40;;;;;;;26.66;44.22;100799.86;1708514;83;21413;-72
2021/06/20 05:17:47;;;;;;;8.63;3.00;;;;;;;27.10;43.83;100804.13;1708811;84;20943;-74
2021/06/20 05:20:16;;;;;;;6.55;2.47;;;;;;;27.39;40.28;100804.48;1708930;84;21716;-73
2021/06/20 05:22:43;;;;;;;8.48;2.90;;;;;;;27.51;41.23;100797.18;1708833;84;20952;-73
2021/06/20 05:25:10;;;;;;;7.65;3.00;;;;;;;27.60;40.44;100796.80;1708789;84;20932;-75
2021/06/20 05:27:37;;;;;;;10.95;3.10;;;;;;;27.58;40.80;100801.56;1708965;82;20856;-74
2021/06/20 05:30:06;;;;;;;11.75;3.33;;;;;;;27.60;39.90;100812.97;1708716;84;20924;-74
2021/06/20 05:32:33;;;;;;;12.03;3.90;;;;;;;27.57;39.53;100808.48;1709064;84;21133;-73
2021/06/20 05:35:00;;;;;;;6.87;2.17;;;;;;;27.53;40.07;100795.95;1708805;83;21370;-74
2021/06/20 05:37:27;;;;;;;11.40;4.08;;;;;;;27.46;39.40;100792.39;1709120;82;21402;-73
2021/06/20 05:39:54;;;;;;;19.70;2.70;;;;;;;27.35;40.52;100785.70;1708763;82;20912;-73
2021/06/20 05:42:21;;;;;;;11.45;3.02;;;;;;;27.28;41.11;100784.31;1709202;82;20928;-74
2021/06/20 05:44:50;;;;;;;8.20;2.60;;;;;;;27.24;41.88;100777.66;1708667;83;21168;-74
2021/06/20 05:47:16;;;;;;;12.45;2.67;;;;;;;27.16;42.15;100780.98;1709021;82;20929;-74
2021/06/20 05:49:43;;;;;;;11.18;2.40;;;;;;;27.07;41.37;100782.47;1708972;82;21541;-74
2021/06/20 05:52:10;;;;;;;11.95;1.92;;;;;;;27.04;41.80;100785.56;1709091;84;20864;-74
2021/06/20 05:54:37;;;;;;;11.08;2.85;;;;;;;27.05;41.57;100778.31;1708826;84;20928;-74
2021/06/20 05:57:04;;;;;;;9.43;2.45;;;;;;;27.08;41.64;100770.69;1709107;83;21106;-74
2021/06/20 05:59:31;;;;;;;16.00;2.47;;;;;;;27.16;42.06;100769.69;1708793;82;20935;-74
2021/06/20 06:01:59;;;;;;;8.43;2.15;;;;;;;27.22;41.23;100764.90;1708811;84;20869;-73
2021/06/20 06:04:25;;;;;;;15.08;2.00;;;;;;;27.22;40.61;100763.55;1708770;84;20939;-74
2021/06/20 06:06:52;;;;;;;9.68;2.00;;;;;;;27.23;41.28;100770.59;1709193;84;21072;-75
2021/06/20 06:09:19;;;;;;;10.70;2.35;;;;;;;27.22;40.30;100766.77;1708974;84;22205;-73
2021/06/20 06:11:46;;;;;;;5.83;3.10;;;;;;;27.28;40.79;100768.67;1708958;83;21390;-74
2021/06/20 06:14:13;;;;;;;10.28;2.20;;;;;;;27.42;41.90;100766.88;1708741;84;20944;-74
2021/06/20 06:16:40;;;;;;;9.28;2.37;;;;;;;27.68;41.65;100777.78;1709076;82;20881;-74
2021/06/20 06:19:07;;;;;;;9.43;2.37;;;;;;;28.01;41.19;100756.85;1708808;84;21335;-75
2021/06/20 06:21:34;;;;;;;8.90;2.22;;;;;;;28.30;39.03;100772.37;1708744;82;22426;-76
2021/06/20 06:24:03;;;;;;;7.47;2.30;;;;;;;28.54;39.10;100772.33;1708776;84;21217;-76
2021/06/20 06:26:30;;;;;;;10.08;3.22;;;;;;;28.72;36.46;100766.30;1708839;84;20924;-75
2021/06/20 06:28:57;;;;;;;20.75;3.85;;;;;;;28.88;35.88;100779.90;1709603;83;20900;-74
2021/06/20 06:31:24;;;;;;;10.28;3.52;;;;;;;29.03;35.05;100763.48;1710352;82;20900;-76
2021/06/20 06:33:51;;;;;;;15.18;3.30;;;;;;;29.17;35.09;100777.81;1711903;81;21465;-78
2021/06/20 06:36:22;;;;;;;9.78;3.10;;;;;;;29.29;35.53;100776.96;1711712;82;20885;-75
2021/06/20 06:38:50;;;;;;;9.53;3.33;;;;;;;29.47;35.86;100787.62;1710784;84;20877;-78
2021/06/20 06:41:18;;;;;;;9.25;2.95;;;;;;;29.69;33.63;100782.80;1709537;84;20927;-78
2021/06/20 06:43:48;;;;;;;8.45;2.30;;;;;;;29.83;34.04;100784.38;1708903;82;20916;-77
2021/06/20 06:46:15;;;;;;;9.95;1.95;;;;;;;30.06;33.46;100796.53;1708796;84;21140;-76
2021/06/20 06:48:42;;;;;;;8.68;1.65;;;;;;;30.26;32.48;100785.59;1708747;82;21011;-76
2021/06/20 06:51:09;;;;;;;5.87;1.40;;;;;;;30.33;31.75;100791.84;1708744;84;21070;-77
2021/06/20 06:53:37;;;;;;;10.53;1.85;;;;;;;30.38;30.54;100789.84;1708815;84;21346;-78
2021/06/20 06:56:04;;;;;;;5.92;1.70;;;;;;;30.44;31.49;100775.41;1708813;82;21418;-78
2021/06/20 06:58:33;;;;;;;5.65;1.55;;;;;;;30.47;31.57;100789.34;1708778;82;21453;-78
2021/06/20 07:01:00;;;;;;;11.10;3.08;;;;;;;30.55;31.76;100780.95;1708835;84;20849;-77
2021/06/20 07:03:27;;;;;;;10.58;4.53;;;;;;;30.61;31.38;100771.11;1708854;84;20979;-79
2021/06/20 07:05:54;;;;;;;12.75;4.30;;;;;;;30.54;31.16;100757.62;1708713;84;21031;-74
2021/06/20 07:08:21;;;;;;;12.07;4.83;;;;;;;30.42;32.54;100757.23;1708789;84;20932;-74
2021/06/20 07:10:50;;;;;;;14.80;5.60;;;;;;;30.46;33.04;100751.66;1708786;82;20925;-75
2021/06/20 07:13:16;;;;;;;10.32;4.87;;;;;;;30.52;32.22;100735.36;1708815;82;21015;-78
2021/06/20 07:15:43;;;;;;;9.13;3.72;;;;;;;30.48;33.42;100744.14;1708824;84;20935;-77
2021/06/20 07:18:12;;;;;;;6.53;2.55;;;;;;;30.48;34.24;100724.70;1708784;84;21456;-78
2021/06/20 07:20:39;;;;;;;7.37;1.67;;;;;;;30.50;33.76;100711.74;1709090;84;20932;-77
2021/06/20 07:23:07;;;;;;;9.63;1.80;;;;;;;30.42;33.85;100728.28;1708735;84;21176;-76
2021/06/20 07:25:34;;;;;;;3.27;0.95;;;;;;;30.32;33.82;100731.99;1708615;82;20936;-78
2021/06/20 07:28:01;;;;;;;5.05;1.65;;;;;;;30.18;35.17;100727.70;1708833;84;21382;-76
2021/06/20 07:30:28;;;;;;;4.12;1.32;;;;;;;30.05;34.58;100738.09;1709009;84;20939;-76
2021/06/20 07:32:55;;;;;;;5.03;1.62;;;;;;;29.81;35.01;100726.16;1708713;84;21401;-76
2021/06/20 07:35:22;;;;;;;1.70;1.00;;;;;;;29.58;35.29;100728.84;1709026;84;21119;-75
2021/06/20 07:37:49;;;;;;;6.30;1.20;;;;;;;29.39;34.55;100719.77;1708697;84;20856;-79
2021/06/20 07:40:17;;;;;;;6.22;0.90;;;;;;;29.19;35.44;100724.41;1708779;84;20928;-80
2021/06/20 07:42:44;;;;;;;8.23;1.17;;;;;;;29.09;35.48;100723.52;1708671;84;20937;-76
2021/06/20 07:45:13;;;;;;;1.72;0.70;;;;;;;29.06;35.57;100714.44;1712287;83;21026;-76
2021/06/20 07:47:40;;;;;;;2.85;1.30;;;;;;;29.04;36.27;100726.82;1716456;83;21203;-78
2021/06/20 07:50:09;;;;;;;5.37;1.25;;;;;;;29.06;36.74;100719.84;1716640;83;20849;-77
2021/06/20 07:52:36;;;;;;;5.05;0.88;;;;;;;29.14;35.90;100720.47;1716396;83;21385;-77
2021/06/20 07:55:04;;;;;;;4.20;1.30;;;;;;;29.16;35.44;100710.81;1716346;83;20932;-76
2021/06/20 07:57:31;;;;;;;7.58;1.82;;;;;;;29.18;36.23;100705.21;1711873;83;20887;-75
2021/06/20 07:59:59;;;;;;;6.80;1.20;;;;;;;29.39;37.06;100709.48;1716762;82;21141;-74
2021/06/20 08:02:28;;;;;;;3.35;1.20;;;;;;;29.66;36.54;100706.13;1716643;82;20896;-76
2021/06/20 08:04:55;;;;;;;9.93;1.20;;;;;;;30.02;36.21;100716.90;1716731;82;21453;-76
2021/06/20 08:07:22;;;;;;;3.02;1.30;;;;;;;30.34;36.33;100715.02;1716413;82;20973;-76
2021/06/20 08:09:50;;;;;;;10.45;1.47;;;;;;;30.47;35.95;100710.03;1716363;83;20912;-79
2021/06/20 08:12:19;;;;;;;3.65;1.50;;;;;;;30.47;35.35;100704.61;1716522;83;21962;-77
2021/06/20 08:14:47;;;;;;;6.50;1.05;;;;;;;30.28;35.11;100710.48;1716370;83;20876;-74
2021/06/20 08:17:14;;;;;;;3.33;1.20;;;;;;;30.16;35.06;100736.03;1716710;83;21401;-76
2021/06/20 08:19:41;;;;;;;8.58;1.15;;;;;;;30.18;34.47;100748.00;1716422;83;20900;-75
2021/06/20 08:22:09;;;;;;;7.22;1.72;;;;;;;30.38;34.66;100755.48;1716250;83;20888;-75
2021/06/20 08:24:37;;;;;;;9.28;3.67;;;;;;;30.60;35.31;100751.87;1716273;83;21128;-77
2021/06/20 08:27:04;;;;;;;7.50;3.55;;;;;;;30.80;34.38;100762.52;1752709;82;20968;-76
2021/06/20 08:29:31;;;;;;;9.43;3.72;;;;;;;30.90;32.38;100754.73;1752390;80;21013;-75
2021/06/20 08:31:59;;;;;;;9.73;4.28;;;;;;;31.06;33.69;100771.45;1752582;82;20881;-74
2021/06/20 08:34:29;;;;;;;7.28;3.45;;;;;;;31.27;31.87;100756.13;1716384;83;20868;-74
2021/06/20 08:36:58;;;;;;;7.50;2.37;;;;;;;31.51;31.27;100757.13;1716608;83;22736;-74
2021/06/20 08:39:26;;;;;;;5.17;1.75;;;;;;;31.79;30.84;100764.71;1752203;80;20889;-73
2021/06/20 08:41:53;;;;;;;6.15;1.82;;;;;;;32.00;29.53;100747.66;1752735;82;20964;-73
2021/06/20 08:44:30;;;;;;;2.67;1.40;;;;;;;32.18;30.97;100751.65;1752417;80;21343;-73
2021/06/20 08:46:58;;;;;;;8.15;2.80;;;;;;;32.47;29.75;100737.44;1752613;82;20912;-73
2021/06/20 08:49:25;;;;;;;6.55;4.17;;;;;;;32.86;29.05;100743.25;1752369;82;21987;-73
2021/06/20 08:51:53;;;;;;;5.67;2.08;;;;;;;33.09;28.79;100749.25;1716157;82;21523;-73
2021/06/20 08:54:21;;;;;;;3.72;1.37;;;;;;;33.18;27.02;100728.24;1716304;83;20864;-73
2021/06/20 08:56:50;;;;;;;5.03;0.90;;;;;;;33.10;28.26;100744.91;1716526;83;20935;-73
2021/06/20 08:59:21;;;;;;;5.92;1.20;;;;;;;33.03;28.31;100750.44;1716342;83;20959;-74
2021/06/20 09:01:48;;;;;;;8.53;1.60;;;;;;;32.83;29.19;100758.13;1752693;81;21150;-73
2021/06/20 09:04:31;;;;;;;3.37;1.67;;;;;;;32.63;29.57;100747.62;1752464;82;20928;-73
2021/06/20 09:07:04;;;;;;;8.93;4.33;;;;;;;32.45;29.42;100765.34;1752649;82;20865;-75
2021/06/20 09:09:34;;;;;;;10.40;5.15;;;;;;;32.18;29.38;100770.65;1752984;82;21003;-74
2021/06/20 09:12:10;;;;;;;7.05;4.25;;;;;;;31.77;28.28;100752.41;1752652;82;20885;-74
2021/06/20 09:14:49;;;;;;;12.43;4.83;;;;;;;31.40;28.79;100755.16;1716734;83;21160;-73
2021/06/20 09:17:28;;;;;;;4.58;1.50;;;;;;;31.04;30.06;100770.35;1716545;83;20928;-73
2021/06/20 09:20:01;;;;;;;7.87;2.42;;;;;;;30.68;28.68;100754.30;1716497;83;20935;-74
2021/06/20 09:22:28;;;;;;;5.30;2.33;;;;;;;30.37;29.17;100755.16;1716482;82;20962;-72
2021/06/20 09:25:08;;;;;;;5.40;2.80;;;;;;;30.09;30.18;100746.90;1716459;83;20979;-74
2021/06/20 09:27:35;;;;;;;5.00;1.67;;;;;;;29.91;30.70;100748.16;1716570;82;21139;-76
2021/06/20 09:30:14;;;;;;;6.15;1.50;;;;;;;29.78;31.04;100741.48;1716759;83;20919;-73
2021/06/20 09:32:57;;;;;;;4.22;1.40;;;;;;;29.61;31.59;100743.80;1716510;83;20891;-73
2021/06/20 09:35:25;;;;;;;2.35;1.05;;;;;;;29.41;32.98;100750.11;1716689;83;20923;-72
2021/06/20 09:37:55;;;;;;;3.67;1.45;;;;;;;29.25;34.23;100741.95;1716500;82;20884;-72
2021/06/20 09:40:26;;;;;;;3.55;1.30;;;;;;;29.12;35.26;100744.16;1716439;83;21776;-74
2021/06/20 09:42:53;;;;;;;9.75;1.32;;;;;;;28.98;35.54;100749.79;1716266;82;21002;-76
2021/06/20 09:45:33;;;;;;;4.33;0.85;;;;;;;28.80;36.32;100742.34;1716678;82;20856;-76
2021/06/20 09:48:01;;;;;;;4.62;0.95;;;;;;;28.64;36.94;100739.02;1716584;83;20872;-75
2021/06/20 09:50:40;;;;;;;2.90;0.88;;;;;;;28.44;37.24;100742.22;1717022;83;20872;-79
2021/06/20 09:53:07;;;;;;;5.42;0.90;;;;;;;28.25;37.67;100735.23;1716956;83;21168;-75
2021/06/20 09:55:35;;;;;;;1.80;1.10;;;;;;;28.09;38.76;100732.93;1716445;83;20935;-79
2021/06/20 09:58:02;;;;;;;2.87;1.42;;;;;;;27.99;39.66;100734.69;1716534;83;20932;-79
2021/06/20 10:00:41;;;;;;;7.33;1.80;;;;;;;27.88;39.73;100730.72;1716765;83;20904;-80
2021/06/20 10:03:09;;;;;;;7.12;1.75;;;;;;;27.81;40.37;100727.12;1716910;83;21310;-81
2021/06/20 10:05:37;;;;;;;7.42;1.72;;;;;;;27.75;39.49;100714.97;1718594;83;21916;-75
2021/06/20 10:08:05;;;;;;;7.45;2.35;;;;;;;27.68;40.39;100720.34;1719377;83;20884;-79
2021/06/20 10:10:34;;;;;;;4.40;1.15;;;;;;;27.64;40.68;100721.27;1720177;83;20908;-79
2021/06/20 10:13:02;;;;;;;5.62;1.80;;;;;;;27.62;39.89;100723.86;1719758;83;20948;-70
2021/06/20 10:15:31;;;;;;;4.53;1.60;;;;;;;27.62;40.98;100737.34;1719647;83;20916;-77
2021/06/20 10:18:00;;;;;;;5.37;1.70;;;;;;;27.63;40.88;100727.68;1716649;83;21911;-79
2021/06/20 10:20:35;;;;;;;4.85;1.52;;;;;;;27.65;40.90;100727.48;1716711;83;21502;-77
2021/06/20 10:23:02;;;;;;;5.00;1.72;;;;;;;27.68;41.07;100728.42;1716412;83;20935;-78
2021/06/20 10:25:40;;;;;;;7.95;1.82;;;;;;;27.74;41.06;100715.49;1716489;83;20959;-76
2021/06/20 10:28:14;;;;;;;9.40;1.75;;;;;;;27.84;40.39;100725.91;1716457;83;20947;-76
2021/06/20 10:30:42;;;;;;;5.08;1.85;;;;;;;27.94;40.50;100714.75;1716408;82;21862;-74
2021/06/20 10:33:20;;;;;;;4.37;1.37;;;;;;;28.03;40.44;100715.69;1716778;82;20852;-75
2021/06/20 10:35:59;;;;;;;8.18;2.00;;;;;;;28.09;40.90;100712.19;1716410;82;20955;-79
2021/06/20 10:38:41;;;;;;;5.20;0.93;;;;;;;28.10;40.32;100710.31;1712008;83;21056;-76
2021/06/20 10:41:09;;;;;;;3.12;0.90;;;;;;;28.07;39.26;100710.73;1716396;83;21038;-76
2021/06/20 10:43:37;;;;;;;4.22;1.10;;;;;;;28.00;38.73;100705.33;1716847;83;21734;-73
2021/06/20 10:46:14;;;;;;;8.48;1.90;;;;;;;27.92;39.66;100705.52;1716393;82;21425;-73
2021/06/20 10:48:42;;;;;;;8.98;1.72;;;;;;;27.85;40.02;100708.19;1718634;82;20912;-84
2021/06/20 10:51:20;;;;;;;6.70;1.72;;;;;;;27.78;40.28;100706.50;1716758;83;20856;-71
2021/06/20 10:53:47;;;;;;;5.67;1.32;;;;;;;27.68;39.94;100709.56;1716505;83;21034;-73
2021/06/20 10:56:25;;;;;;;4.70;0.82;;;;;;;27.54;40.45;100704.64;1716471;82;20896;-75
2021/06/20 10:58:54;;;;;;;5.75;1.32;;;;;;;27.42;39.94;100700.89;1716315;83;20888;-74
2021/06/20 11:01:23;;;;;;;9.03;1.85;;;;;;;27.31;40.88;100705.50;1716421;83;21010;-75
2021/06/20 11:03:58;;;;;;;8.28;1.77;;;;;;;27.20;40.95;100707.69;1716357;82;20944;-74
2021/06/20 11:06:26;;;;;;;3.65;1.42;;;;;;;27.15;41.35;100705.29;1716425;82;20944;-72
2021/06/20 11:09:03;;;;;;;6.05;1.30;;;;;;;27.13;40.90;100711.39;1716586;82;21132;-74
2021/06/20 11:11:52;;;;;;;7.20;0.93;;;;;;;27.12;40.47;100710.53;1716290;83;20892;-72
2021/06/20 11:14:21;;;;;;;7.62;0.93;;;;;;;27.17;40.86;100717.52;1716479;83;21338;-77
2021/06/20 11:16:49;;;;;;;8.35;1.35;;;;;;;27.29;41.15;100718.63;1716418;83;20864;-75
2021/06/20 11:19:24;;;;;;;6.97;1.40;;;;;;;27.40;40.86;100714.55;1716657;83;20900;-75
2021/06/20 11:21:58;;;;;;;7.85;1.37;;;;;;;27.67;40.12;100709.26;1716453;82;21088;-73
2021/06/20 11:24:31;;;;;;;4.85;0.93;;;;;;;27.86;40.25;100707.17;1716265;82;21427;-74
2021/06/20 11:27:10;;;;;;;5.37;1.30;;;;;;;28.17;39.77;100708.48;1716348;82;21389;-75
2021/06/20 11:29:46;;;;;;;3.75;0.98;;;;;;;28.47;39.47;100704.02;1716352;83;20912;-74
2021/06/20 11:32:22;;;;;;;6.42;1.50;;;;;;;28.69;37.80;100706.01;1716384;82;20938;-73
2021/06/20 11:34:55;;;;;;;2.08;0.72;;;;;;;28.82;37.98;100701.12;1716584;83;21167;-75